sensor_id;sensor_type;location;lat;lon;timestamp;temperature;humidity
33715;DHT22;20043;50.998;4.754;2023-02-15T00:00:30;4.40;99.90
33715;DHT22;20043;50.998;4.754;2023-02-15T00:02:56;4.50;99.90
33715;DHT22;20043;50.998;4.754;2023-02-15T00:05:21;4.50;99.90
33715;DHT22;20043;50.998;4.754;2023-02-15T00:07:47;4.50;99.90
33715;DHT22;20043;50.998;4.754;2023-02-15T00:10:12;4.30;99.90
33715;DHT22;20043;50.998;4.754;2023-02-15T00:12:39;4.20;99.90
33715;DHT22;20043;50.998;4.754;2023-02-15T00:15:04;4.20;99.90
33715;DHT22;20043;50.998;4.754;2023-02-15T00:17:30;4.20;99.90
33715;DHT22;20043;50.998;4.754;2023-02-15T00:19:56;4.20;99.90
33715;DHT22;20043;50.998;4.754;2023-02-15T00:22:21;4.20;99.90
33715;DHT22;20043;50.998;4.754;2023-02-15T00:24:47;4.20;99.90
33715;DHT22;20043;50.998;4.754;2023-02-15T00:27:12;4.10;99.90
33715;DHT22;20043;50.998;4.754;2023-02-15T00:29:38;4.10;99.90
33715;DHT22;20043;50.998;4.754;2023-02-15T00:32:04;4.10;99.90
33715;DHT22;20043;50.998;4.754;2023-02-15T00:34:29;4.10;99.90
33715;DHT22;20043;50.998;4.754;2023-02-15T00:36:55;4.10;99.90
33715;DHT22;20043;50.998;4.754;2023-02-15T00:39:21;4.10;99.90
33715;DHT22;20043;50.998;4.754;2023-02-15T00:41:47;3.90;99.90
33715;DHT22;20043;50.998;4.754;2023-02-15T00:44:13;3.90;99.90
33715;DHT22;20043;50.998;4.754;2023-02-15T00:46:39;4.00;99.90
33715;DHT22;20043;50.998;4.754;2023-02-15T00:49:05;4.00;99.90
33715;DHT22;20043;50.998;4.754;2023-02-15T00:51:31;4.00;99.90
33715;DHT22;20043;50.998;4.754;2023-02-15T00:53:57;4.00;99.90
33715;DHT22;20043;50.998;4.754;2023-02-15T00:56:23;3.90;99.90
33715;DHT22;20043;50.998;4.754;2023-02-15T00:58:48;3.90;99.90
33715;DHT22;20043;50.998;4.754;2023-02-15T01:01:17;3.90;99.90
33715;DHT22;20043;50.998;4.754;2023-02-15T01:03:44;3.90;99.90
33715;DHT22;20043;50.998;4.754;2023-02-15T01:06:11;3.80;99.90
33715;DHT22;20043;50.998;4.754;2023-02-15T01:08:37;3.70;99.90
33715;DHT22;20043;50.998;4.754;2023-02-15T01:11:09;3.70;99.90
33715;DHT22;20043;50.998;4.754;2023-02-15T01:13:35;3.60;99.90
33715;DHT22;20043;50.998;4.754;2023-02-15T01:16:01;3.60;99.90
33715;DHT22;20043;50.998;4.754;2023-02-15T01:18:27;3.60;99.90
33715;DHT22;20043;50.998;4.754;2023-02-15T01:20:53;3.50;99.90
33715;DHT22;20043;50.998;4.754;2023-02-15T01:23:19;3.40;99.90
33715;DHT22;20043;50.998;4.754;2023-02-15T01:25:45;3.50;99.90
33715;DHT22;20043;50.998;4.754;2023-02-15T01:28:10;3.50;99.90
33715;DHT22;20043;50.998;4.754;2023-02-15T01:30:36;3.30;99.90
33715;DHT22;20043;50.998;4.754;2023-02-15T01:33:02;3.40;99.90
33715;DHT22;20043;50.998;4.754;2023-02-15T01:35:27;3.40;99.90
33715;DHT22;20043;50.998;4.754;2023-02-15T01:37:54;3.50;99.90
33715;DHT22;20043;50.998;4.754;2023-02-15T01:40:20;3.60;99.90
33715;DHT22;20043;50.998;4.754;2023-02-15T01:42:50;3.90;99.90
33715;DHT22;20043;50.998;4.754;2023-02-15T01:45:31;3.80;99.90
33715;DHT22;20043;50.998;4.754;2023-02-15T01:48:08;3.60;99.90
33715;DHT22;20043;50.998;4.754;2023-02-15T01:50:44;3.40;99.90
33715;DHT22;20043;50.998;4.754;2023-02-15T01:53:17;3.40;99.90
33715;DHT22;20043;50.998;4.754;2023-02-15T01:55:47;3.40;99.90
33715;DHT22;20043;50.998;4.754;2023-02-15T01:58:14;3.30;99.90
33715;DHT22;20043;50.998;4.754;2023-02-15T02:00:41;3.30;99.90
33715;DHT22;20043;50.998;4.754;2023-02-15T02:03:07;3.30;99.90
33715;DHT22;20043;50.998;4.754;2023-02-15T02:05:33;3.30;99.90
33715;DHT22;20043;50.998;4.754;2023-02-15T02:08:00;3.40;99.90
33715;DHT22;20043;50.998;4.754;2023-02-15T02:10:27;3.30;99.90
33715;DHT22;20043;50.998;4.754;2023-02-15T02:13:00;3.30;99.90
33715;DHT22;20043;50.998;4.754;2023-02-15T02:15:39;3.30;99.90
33715;DHT22;20043;50.998;4.754;2023-02-15T02:23:43;3.30;99.90
33715;DHT22;20043;50.998;4.754;2023-02-15T02:40:03;3.20;99.90
33715;DHT22;20043;50.998;4.754;2023-02-15T02:42:40;3.10;99.90
33715;DHT22;20043;50.998;4.754;2023-02-15T02:45:24;3.10;99.90
33715;DHT22;20043;50.998;4.754;2023-02-15T02:48:01;3.00;99.90
33715;DHT22;20043;50.998;4.754;2023-02-15T02:50:29;2.80;99.90
33715;DHT22;20043;50.998;4.754;2023-02-15T02:52:56;2.80;99.90
33715;DHT22;20043;50.998;4.754;2023-02-15T02:55:30;2.90;99.90
33715;DHT22;20043;50.998;4.754;2023-02-15T03:00:44;2.80;99.90
33715;DHT22;20043;50.998;4.754;2023-02-15T03:03:13;2.80;99.90
33715;DHT22;20043;50.998;4.754;2023-02-15T03:05:44;2.90;99.90
33715;DHT22;20043;50.998;4.754;2023-02-15T03:08:12;2.90;99.90
33715;DHT22;20043;50.998;4.754;2023-02-15T03:10:48;2.90;99.90
33715;DHT22;20043;50.998;4.754;2023-02-15T03:13:14;2.80;99.90
33715;DHT22;20043;50.998;4.754;2023-02-15T03:15:41;2.80;99.90
33715;DHT22;20043;50.998;4.754;2023-02-15T03:18:30;2.80;99.90
33715;DHT22;20043;50.998;4.754;2023-02-15T03:20:59;2.80;99.90
33715;DHT22;20043;50.998;4.754;2023-02-15T03:23:28;2.80;99.90
33715;DHT22;20043;50.998;4.754;2023-02-15T03:26:00;3.00;99.90
33715;DHT22;20043;50.998;4.754;2023-02-15T03:28:36;3.00;99.90
33715;DHT22;20043;50.998;4.754;2023-02-15T03:31:05;3.10;99.90
33715;DHT22;20043;50.998;4.754;2023-02-15T03:33:32;3.10;99.90
33715;DHT22;20043;50.998;4.754;2023-02-15T03:36:26;2.90;99.90
33715;DHT22;20043;50.998;4.754;2023-02-15T03:41:32;2.70;99.90
33715;DHT22;20043;50.998;4.754;2023-02-15T03:44:06;2.70;99.90
33715;DHT22;20043;50.998;4.754;2023-02-15T03:46:46;2.70;99.90
33715;DHT22;20043;50.998;4.754;2023-02-15T03:51:46;2.60;99.90
33715;DHT22;20043;50.998;4.754;2023-02-15T03:54:25;2.50;99.90
33715;DHT22;20043;50.998;4.754;2023-02-15T03:57:26;2.40;99.90
33715;DHT22;20043;50.998;4.754;2023-02-15T04:00:15;2.20;99.90
33715;DHT22;20043;50.998;4.754;2023-02-15T04:05:35;2.10;99.90
33715;DHT22;20043;50.998;4.754;2023-02-15T04:08:01;2.20;99.90
33715;DHT22;20043;50.998;4.754;2023-02-15T04:10:26;2.30;99.90
33715;DHT22;20043;50.998;4.754;2023-02-15T04:13:10;2.40;99.90
33715;DHT22;20043;50.998;4.754;2023-02-15T04:15:36;2.30;99.90
33715;DHT22;20043;50.998;4.754;2023-02-15T04:18:20;2.10;99.90
33715;DHT22;20043;50.998;4.754;2023-02-15T04:20:46;2.20;99.90
33715;DHT22;20043;50.998;4.754;2023-02-15T04:23:30;2.30;99.90
33715;DHT22;20043;50.998;4.754;2023-02-15T04:26:14;2.30;99.90
33715;DHT22;20043;50.998;4.754;2023-02-15T04:28:40;2.20;99.90
33715;DHT22;20043;50.998;4.754;2023-02-15T04:31:05;2.20;99.90
33715;DHT22;20043;50.998;4.754;2023-02-15T04:33:31;2.30;99.90
33715;DHT22;20043;50.998;4.754;2023-02-15T04:35:57;2.30;99.90
33715;DHT22;20043;50.998;4.754;2023-02-15T04:38:22;2.20;99.90
33715;DHT22;20043;50.998;4.754;2023-02-15T04:40:52;2.20;99.90
33715;DHT22;20043;50.998;4.754;2023-02-15T04:43:19;2.30;99.90
33715;DHT22;20043;50.998;4.754;2023-02-15T04:45:49;2.30;99.90
33715;DHT22;20043;50.998;4.754;2023-02-15T04:48:16;2.30;99.90
33715;DHT22;20043;50.998;4.754;2023-02-15T04:50:42;2.20;99.90
33715;DHT22;20043;50.998;4.754;2023-02-15T04:53:08;2.20;99.90
33715;DHT22;20043;50.998;4.754;2023-02-15T04:55:33;2.20;99.90
33715;DHT22;20043;50.998;4.754;2023-02-15T04:57:59;2.10;99.90
33715;DHT22;20043;50.998;4.754;2023-02-15T05:00:24;2.10;99.90
33715;DHT22;20043;50.998;4.754;2023-02-15T05:02:50;2.10;99.90
33715;DHT22;20043;50.998;4.754;2023-02-15T05:05:16;2.20;99.90
33715;DHT22;20043;50.998;4.754;2023-02-15T05:07:41;2.40;99.90
33715;DHT22;20043;50.998;4.754;2023-02-15T05:10:07;2.50;99.90
33715;DHT22;20043;50.998;4.754;2023-02-15T05:12:33;2.50;99.90
33715;DHT22;20043;50.998;4.754;2023-02-15T05:14:58;2.40;99.90
33715;DHT22;20043;50.998;4.754;2023-02-15T05:17:24;2.30;99.90
33715;DHT22;20043;50.998;4.754;2023-02-15T05:19:50;2.20;99.90
33715;DHT22;20043;50.998;4.754;2023-02-15T05:22:15;2.10;99.90
33715;DHT22;20043;50.998;4.754;2023-02-15T05:24:41;2.10;99.90
33715;DHT22;20043;50.998;4.754;2023-02-15T05:27:25;2.10;99.90
33715;DHT22;20043;50.998;4.754;2023-02-15T05:30:09;2.10;99.90
33715;DHT22;20043;50.998;4.754;2023-02-15T05:32:37;2.20;99.90
33715;DHT22;20043;50.998;4.754;2023-02-15T05:35:04;2.20;99.90
33715;DHT22;20043;50.998;4.754;2023-02-15T05:37:30;2.10;99.90
33715;DHT22;20043;50.998;4.754;2023-02-15T05:39:56;2.00;99.90
33715;DHT22;20043;50.998;4.754;2023-02-15T05:42:21;2.00;99.90
33715;DHT22;20043;50.998;4.754;2023-02-15T05:44:47;2.00;99.90
33715;DHT22;20043;50.998;4.754;2023-02-15T05:47:12;2.10;99.90
33715;DHT22;20043;50.998;4.754;2023-02-15T05:49:38;2.20;99.90
33715;DHT22;20043;50.998;4.754;2023-02-15T05:52:04;2.10;99.90
33715;DHT22;20043;50.998;4.754;2023-02-15T05:54:29;2.10;99.90
33715;DHT22;20043;50.998;4.754;2023-02-15T05:56:55;2.00;99.90
33715;DHT22;20043;50.998;4.754;2023-02-15T05:59:21;2.00;99.90
33715;DHT22;20043;50.998;4.754;2023-02-15T06:01:46;2.00;99.90
33715;DHT22;20043;50.998;4.754;2023-02-15T06:04:12;2.00;99.90
33715;DHT22;20043;50.998;4.754;2023-02-15T06:06:38;2.10;99.90
33715;DHT22;20043;50.998;4.754;2023-02-15T06:09:03;2.10;99.90
33715;DHT22;20043;50.998;4.754;2023-02-15T06:11:29;2.10;99.90
33715;DHT22;20043;50.998;4.754;2023-02-15T06:13:54;2.00;99.90
33715;DHT22;20043;50.998;4.754;2023-02-15T06:16:20;2.10;99.90
33715;DHT22;20043;50.998;4.754;2023-02-15T06:18:46;2.00;99.90
33715;DHT22;20043;50.998;4.754;2023-02-15T06:21:11;2.10;99.90
33715;DHT22;20043;50.998;4.754;2023-02-15T06:23:37;2.20;99.90
33715;DHT22;20043;50.998;4.754;2023-02-15T06:26:03;2.10;99.90
33715;DHT22;20043;50.998;4.754;2023-02-15T06:28:28;2.00;99.90
33715;DHT22;20043;50.998;4.754;2023-02-15T06:30:54;1.80;99.90
33715;DHT22;20043;50.998;4.754;2023-02-15T06:33:23;1.90;99.90
33715;DHT22;20043;50.998;4.754;2023-02-15T06:35:48;1.90;99.90
33715;DHT22;20043;50.998;4.754;2023-02-15T06:38:14;1.90;99.90
33715;DHT22;20043;50.998;4.754;2023-02-15T06:40:40;1.90;99.90
33715;DHT22;20043;50.998;4.754;2023-02-15T06:43:05;1.90;99.90
33715;DHT22;20043;50.998;4.754;2023-02-15T06:45:31;2.00;99.90
33715;DHT22;20043;50.998;4.754;2023-02-15T06:47:56;2.00;99.90
33715;DHT22;20043;50.998;4.754;2023-02-15T06:50:22;1.90;99.90
33715;DHT22;20043;50.998;4.754;2023-02-15T06:52:48;2.00;99.90
33715;DHT22;20043;50.998;4.754;2023-02-15T06:55:13;1.90;99.90
33715;DHT22;20043;50.998;4.754;2023-02-15T06:57:39;1.90;99.90
33715;DHT22;20043;50.998;4.754;2023-02-15T07:00:05;2.00;99.90
33715;DHT22;20043;50.998;4.754;2023-02-15T07:02:31;2.10;99.90
33715;DHT22;20043;50.998;4.754;2023-02-15T07:04:57;2.10;99.90
33715;DHT22;20043;50.998;4.754;2023-02-15T07:07:22;2.10;99.90
33715;DHT22;20043;50.998;4.754;2023-02-15T07:09:48;2.00;99.90
33715;DHT22;20043;50.998;4.754;2023-02-15T07:12:14;1.90;99.90
33715;DHT22;20043;50.998;4.754;2023-02-15T07:14:58;1.80;99.90
33715;DHT22;20043;50.998;4.754;2023-02-15T07:17:24;1.80;99.90
33715;DHT22;20043;50.998;4.754;2023-02-15T07:19:54;1.90;99.90
33715;DHT22;20043;50.998;4.754;2023-02-15T07:22:19;2.00;99.90
33715;DHT22;20043;50.998;4.754;2023-02-15T07:24:45;2.20;99.90
33715;DHT22;20043;50.998;4.754;2023-02-15T07:27:10;2.30;99.90
33715;DHT22;20043;50.998;4.754;2023-02-15T07:29:36;2.40;99.90
33715;DHT22;20043;50.998;4.754;2023-02-15T07:32:01;2.50;99.90
33715;DHT22;20043;50.998;4.754;2023-02-15T07:34:27;2.50;99.90
33715;DHT22;20043;50.998;4.754;2023-02-15T07:36:52;2.60;99.90
33715;DHT22;20043;50.998;4.754;2023-02-15T07:39:19;2.80;99.90
33715;DHT22;20043;50.998;4.754;2023-02-15T07:41:44;2.90;99.90
33715;DHT22;20043;50.998;4.754;2023-02-15T07:44:14;3.00;99.90
33715;DHT22;20043;50.998;4.754;2023-02-15T07:46:40;3.10;99.90
33715;DHT22;20043;50.998;4.754;2023-02-15T07:49:06;3.10;99.90
33715;DHT22;20043;50.998;4.754;2023-02-15T07:51:31;3.30;99.90
33715;DHT22;20043;50.998;4.754;2023-02-15T07:53:57;3.30;99.90
33715;DHT22;20043;50.998;4.754;2023-02-15T07:56:22;3.40;99.90
33715;DHT22;20043;50.998;4.754;2023-02-15T07:58:48;3.50;99.90
33715;DHT22;20043;50.998;4.754;2023-02-15T08:01:22;3.40;99.90
33715;DHT22;20043;50.998;4.754;2023-02-15T08:03:48;3.40;99.90
33715;DHT22;20043;50.998;4.754;2023-02-15T08:06:14;3.60;99.90
33715;DHT22;20043;50.998;4.754;2023-02-15T08:08:41;3.80;99.90
33715;DHT22;20043;50.998;4.754;2023-02-15T08:11:18;4.00;99.90
33715;DHT22;20043;50.998;4.754;2023-02-15T08:14:11;4.10;99.90
33715;DHT22;20043;50.998;4.754;2023-02-15T08:16:45;4.20;99.90
33715;DHT22;20043;50.998;4.754;2023-02-15T08:21:45;4.20;99.90
33715;DHT22;20043;50.998;4.754;2023-02-15T08:24:12;4.20;99.90
33715;DHT22;20043;50.998;4.754;2023-02-15T08:26:39;4.30;99.90
33715;DHT22;20043;50.998;4.754;2023-02-15T08:29:06;4.50;99.90
33715;DHT22;20043;50.998;4.754;2023-02-15T08:31:32;4.60;99.90
33715;DHT22;20043;50.998;4.754;2023-02-15T08:33:59;4.70;99.90
33715;DHT22;20043;50.998;4.754;2023-02-15T08:36:27;4.90;99.90
33715;DHT22;20043;50.998;4.754;2023-02-15T08:38:54;5.00;99.90
33715;DHT22;20043;50.998;4.754;2023-02-15T08:41:34;5.10;99.90
33715;DHT22;20043;50.998;4.754;2023-02-15T08:44:02;5.30;99.90
33715;DHT22;20043;50.998;4.754;2023-02-15T08:46:31;5.40;99.90
33715;DHT22;20043;50.998;4.754;2023-02-15T08:48:58;5.40;99.90
33715;DHT22;20043;50.998;4.754;2023-02-15T08:51:26;5.40;99.90
33715;DHT22;20043;50.998;4.754;2023-02-15T08:53:55;5.30;99.90
33715;DHT22;20043;50.998;4.754;2023-02-15T08:56:23;5.30;99.90
33715;DHT22;20043;50.998;4.754;2023-02-15T08:58:49;5.30;99.90
33715;DHT22;20043;50.998;4.754;2023-02-15T09:01:21;5.50;99.90
33715;DHT22;20043;50.998;4.754;2023-02-15T09:03:49;5.70;99.90
33715;DHT22;20043;50.998;4.754;2023-02-15T09:06:16;5.80;99.90
33715;DHT22;20043;50.998;4.754;2023-02-15T09:08:42;5.70;99.90
33715;DHT22;20043;50.998;4.754;2023-02-15T09:11:16;5.70;99.90
33715;DHT22;20043;50.998;4.754;2023-02-15T09:13:48;5.80;99.90
33715;DHT22;20043;50.998;4.754;2023-02-15T09:16:14;5.90;99.90
33715;DHT22;20043;50.998;4.754;2023-02-15T09:18:42;6.00;99.90
33715;DHT22;20043;50.998;4.754;2023-02-15T09:21:15;6.20;99.90
33715;DHT22;20043;50.998;4.754;2023-02-15T09:23:43;6.50;99.90
33715;DHT22;20043;50.998;4.754;2023-02-15T09:26:11;6.90;99.90
33715;DHT22;20043;50.998;4.754;2023-02-15T09:28:37;7.00;99.90
33715;DHT22;20043;50.998;4.754;2023-02-15T09:31:11;7.00;99.90
33715;DHT22;20043;50.998;4.754;2023-02-15T09:33:38;7.20;99.90
33715;DHT22;20043;50.998;4.754;2023-02-15T09:36:05;7.30;99.90
33715;DHT22;20043;50.998;4.754;2023-02-15T09:38:31;7.60;99.90
33715;DHT22;20043;50.998;4.754;2023-02-15T09:49:56;8.40;99.90
33715;DHT22;20043;50.998;4.754;2023-02-15T10:12:34;8.90;99.90
33715;DHT22;20043;50.998;4.754;2023-02-15T10:28:12;9.20;99.90
33715;DHT22;20043;50.998;4.754;2023-02-15T10:30:51;9.30;99.90
33715;DHT22;20043;50.998;4.754;2023-02-15T10:39:10;9.60;99.90
33715;DHT22;20043;50.998;4.754;2023-02-15T10:56:00;10.30;99.90
33715;DHT22;20043;50.998;4.754;2023-02-15T11:01:13;10.40;99.90
33715;DHT22;20043;50.998;4.754;2023-02-15T11:06:53;10.80;99.90
33715;DHT22;20043;50.998;4.754;2023-02-15T11:09:22;11.00;99.90
33715;DHT22;20043;50.998;4.754;2023-02-15T11:11:52;11.00;99.90
33715;DHT22;20043;50.998;4.754;2023-02-15T11:14:35;11.00;99.90
33715;DHT22;20043;50.998;4.754;2023-02-15T11:17:11;11.10;99.90
33715;DHT22;20043;50.998;4.754;2023-02-15T11:19:45;11.20;99.90
33715;DHT22;20043;50.998;4.754;2023-02-15T11:22:15;11.40;99.90
33715;DHT22;20043;50.998;4.754;2023-02-15T11:24:43;11.60;99.90
33715;DHT22;20043;50.998;4.754;2023-02-15T11:32:33;11.90;99.90
33715;DHT22;20043;50.998;4.754;2023-02-15T11:40:27;12.00;99.90
33715;DHT22;20043;50.998;4.754;2023-02-15T11:43:00;11.80;99.90
33715;DHT22;20043;50.998;4.754;2023-02-15T11:45:33;11.90;99.90
33715;DHT22;20043;50.998;4.754;2023-02-15T11:48:00;11.90;99.90
33715;DHT22;20043;50.998;4.754;2023-02-15T11:50:31;11.90;99.90
33715;DHT22;20043;50.998;4.754;2023-02-15T11:56:00;12.10;99.90
33715;DHT22;20043;50.998;4.754;2023-02-15T12:01:28;12.20;99.90
33715;DHT22;20043;50.998;4.754;2023-02-15T12:06:59;12.50;99.90
33715;DHT22;20043;50.998;4.754;2023-02-15T12:12:29;12.50;99.90
33715;DHT22;20043;50.998;4.754;2023-02-15T12:14:57;12.50;99.90
33715;DHT22;20043;50.998;4.754;2023-02-15T12:22:37;12.70;99.90
33715;DHT22;20043;50.998;4.754;2023-02-15T12:25:25;12.70;99.90
33715;DHT22;20043;50.998;4.754;2023-02-15T12:27:51;12.70;99.90
33715;DHT22;20043;50.998;4.754;2023-02-15T12:30:25;12.70;99.90
33715;DHT22;20043;50.998;4.754;2023-02-15T12:32:58;12.90;99.90
33715;DHT22;20043;50.998;4.754;2023-02-15T12:35:30;13.10;99.90
33715;DHT22;20043;50.998;4.754;2023-02-15T12:40:29;13.20;99.90
33715;DHT22;20043;50.998;4.754;2023-02-15T12:42:55;13.10;99.90
33715;DHT22;20043;50.998;4.754;2023-02-15T12:45:33;13.10;99.90
33715;DHT22;20043;50.998;4.754;2023-02-15T12:48:17;13.00;99.90
33715;DHT22;20043;50.998;4.754;2023-02-15T12:50:45;13.00;99.90
33715;DHT22;20043;50.998;4.754;2023-02-15T12:53:23;13.00;99.90
33715;DHT22;20043;50.998;4.754;2023-02-15T12:56:00;13.10;99.90
33715;DHT22;20043;50.998;4.754;2023-02-15T12:58:28;13.10;99.90
33715;DHT22;20043;50.998;4.754;2023-02-15T13:06:23;13.40;99.90
33715;DHT22;20043;50.998;4.754;2023-02-15T13:08:50;13.50;99.90
33715;DHT22;20043;50.998;4.754;2023-02-15T13:11:29;13.50;99.90
33715;DHT22;20043;50.998;4.754;2023-02-15T13:14:01;13.50;99.90
33715;DHT22;20043;50.998;4.754;2023-02-15T13:16:38;13.70;99.90
33715;DHT22;20043;50.998;4.754;2023-02-15T13:19:18;13.70;99.90
33715;DHT22;20043;50.998;4.754;2023-02-15T13:21:47;13.80;99.90
33715;DHT22;20043;50.998;4.754;2023-02-15T13:24:28;13.70;99.90
33715;DHT22;20043;50.998;4.754;2023-02-15T13:26:56;13.70;99.90
33715;DHT22;20043;50.998;4.754;2023-02-15T13:29:27;13.60;99.90
33715;DHT22;20043;50.998;4.754;2023-02-15T13:31:55;13.60;99.90
33715;DHT22;20043;50.998;4.754;2023-02-15T13:39:45;13.60;99.90
33715;DHT22;20043;50.998;4.754;2023-02-15T13:42:38;13.70;99.90
33715;DHT22;20043;50.998;4.754;2023-02-15T13:50:36;14.10;99.90
33715;DHT22;20043;50.998;4.754;2023-02-15T13:55:50;13.90;99.90
33715;DHT22;20043;50.998;4.754;2023-02-15T14:12:38;13.90;99.90
33715;DHT22;20043;50.998;4.754;2023-02-15T14:21:10;13.70;99.90
33715;DHT22;20043;50.998;4.754;2023-02-15T14:24:18;13.80;99.90
33715;DHT22;20043;50.998;4.754;2023-02-15T14:26:50;13.80;99.90
33715;DHT22;20043;50.998;4.754;2023-02-15T14:29:35;13.90;99.90
33715;DHT22;20043;50.998;4.754;2023-02-15T14:32:12;13.90;99.90
33715;DHT22;20043;50.998;4.754;2023-02-15T14:34:54;13.70;99.90
33715;DHT22;20043;50.998;4.754;2023-02-15T14:40:26;13.70;99.90
33715;DHT22;20043;50.998;4.754;2023-02-15T14:48:56;13.70;99.90
33715;DHT22;20043;50.998;4.754;2023-02-15T14:54:11;13.70;99.90
33715;DHT22;20043;50.998;4.754;2023-02-15T15:02:45;13.80;99.90
33715;DHT22;20043;50.998;4.754;2023-02-15T15:05:20;14.10;99.90
33715;DHT22;20043;50.998;4.754;2023-02-15T15:07:50;14.10;99.90
33715;DHT22;20043;50.998;4.754;2023-02-15T15:15:47;14.10;99.90
33715;DHT22;20043;50.998;4.754;2023-02-15T15:18:43;14.20;99.90
33715;DHT22;20043;50.998;4.754;2023-02-15T15:21:09;14.20;99.90
33715;DHT22;20043;50.998;4.754;2023-02-15T15:23:38;14.20;99.90
33715;DHT22;20043;50.998;4.754;2023-02-15T15:26:27;14.10;99.90
33715;DHT22;20043;50.998;4.754;2023-02-15T15:28:54;14.00;99.90
33715;DHT22;20043;50.998;4.754;2023-02-15T15:31:45;14.00;99.90
33715;DHT22;20043;50.998;4.754;2023-02-15T15:34:51;13.90;99.90
33715;DHT22;20043;50.998;4.754;2023-02-15T15:46:11;13.90;99.90
33715;DHT22;20043;50.998;4.754;2023-02-15T15:48:40;14.00;99.90
33715;DHT22;20043;50.998;4.754;2023-02-15T15:51:29;13.90;99.90
33715;DHT22;20043;50.998;4.754;2023-02-15T15:53:55;13.90;99.90
33715;DHT22;20043;50.998;4.754;2023-02-15T15:56:30;13.80;99.90
33715;DHT22;20043;50.998;4.754;2023-02-15T15:59:06;13.70;99.90
33715;DHT22;20043;50.998;4.754;2023-02-15T16:01:40;13.80;99.90
33715;DHT22;20043;50.998;4.754;2023-02-15T16:04:12;13.80;99.90
33715;DHT22;20043;50.998;4.754;2023-02-15T16:06:39;13.50;99.90
33715;DHT22;20043;50.998;4.754;2023-02-15T16:11:43;13.60;99.90
33715;DHT22;20043;50.998;4.754;2023-02-15T16:14:32;13.80;99.90
33715;DHT22;20043;50.998;4.754;2023-02-15T16:17:02;13.60;99.90
33715;DHT22;20043;50.998;4.754;2023-02-15T16:19:33;13.70;99.90
33715;DHT22;20043;50.998;4.754;2023-02-15T16:22:01;13.70;99.90
33715;DHT22;20043;50.998;4.754;2023-02-15T16:24:36;13.50;99.90
33715;DHT22;20043;50.998;4.754;2023-02-15T16:27:24;13.50;99.90
33715;DHT22;20043;50.998;4.754;2023-02-15T16:29:52;13.40;99.90
33715;DHT22;20043;50.998;4.754;2023-02-15T16:32:24;13.30;99.90
33715;DHT22;20043;50.998;4.754;2023-02-15T16:34:56;13.20;99.90
33715;DHT22;20043;50.998;4.754;2023-02-15T16:37:24;13.20;99.90
33715;DHT22;20043;50.998;4.754;2023-02-15T16:39:53;13.20;99.90
33715;DHT22;20043;50.998;4.754;2023-02-15T16:42:18;13.10;99.90
33715;DHT22;20043;50.998;4.754;2023-02-15T16:45:08;13.10;99.90
33715;DHT22;20043;50.998;4.754;2023-02-15T16:47:41;12.90;99.90
33715;DHT22;20043;50.998;4.754;2023-02-15T16:50:20;12.90;99.90
33715;DHT22;20043;50.998;4.754;2023-02-15T16:52:47;12.90;99.90
33715;DHT22;20043;50.998;4.754;2023-02-15T16:55:30;12.90;99.90
33715;DHT22;20043;50.998;4.754;2023-02-15T16:58:01;12.70;99.90
33715;DHT22;20043;50.998;4.754;2023-02-15T17:00:32;12.70;99.90
33715;DHT22;20043;50.998;4.754;2023-02-15T17:03:00;12.60;99.90
33715;DHT22;20043;50.998;4.754;2023-02-15T17:05:31;12.60;99.90
33715;DHT22;20043;50.998;4.754;2023-02-15T17:10:31;12.30;99.90
33715;DHT22;20043;50.998;4.754;2023-02-15T17:13:14;12.30;99.90
33715;DHT22;20043;50.998;4.754;2023-02-15T17:16:06;12.20;99.90
33715;DHT22;20043;50.998;4.754;2023-02-15T17:18:40;12.20;99.90
33715;DHT22;20043;50.998;4.754;2023-02-15T17:21:12;12.20;99.90
33715;DHT22;20043;50.998;4.754;2023-02-15T17:23:45;12.30;99.90
33715;DHT22;20043;50.998;4.754;2023-02-15T17:26:20;12.20;99.90
33715;DHT22;20043;50.998;4.754;2023-02-15T17:28:55;12.10;99.90
33715;DHT22;20043;50.998;4.754;2023-02-15T17:31:27;11.90;99.90
33715;DHT22;20043;50.998;4.754;2023-02-15T17:33:56;11.80;99.90
33715;DHT22;20043;50.998;4.754;2023-02-15T17:36:26;11.70;99.90
33715;DHT22;20043;50.998;4.754;2023-02-15T17:41:30;11.40;99.90
33715;DHT22;20043;50.998;4.754;2023-02-15T17:43:56;11.50;99.90
33715;DHT22;20043;50.998;4.754;2023-02-15T17:46:23;11.50;99.90
33715;DHT22;20043;50.998;4.754;2023-02-15T17:48:51;11.40;99.90
33715;DHT22;20043;50.998;4.754;2023-02-15T17:51:18;11.40;99.90
33715;DHT22;20043;50.998;4.754;2023-02-15T17:53:45;11.40;99.90
33715;DHT22;20043;50.998;4.754;2023-02-15T17:56:29;11.40;99.90
33715;DHT22;20043;50.998;4.754;2023-02-15T17:58:54;11.40;99.90
33715;DHT22;20043;50.998;4.754;2023-02-15T18:01:20;11.40;99.90
33715;DHT22;20043;50.998;4.754;2023-02-15T18:04:09;11.30;99.90
33715;DHT22;20043;50.998;4.754;2023-02-15T18:06:54;11.40;99.90
33715;DHT22;20043;50.998;4.754;2023-02-15T18:09:38;11.50;99.90
33715;DHT22;20043;50.998;4.754;2023-02-15T18:12:28;11.60;99.90
33715;DHT22;20043;50.998;4.754;2023-02-15T18:14:55;11.50;99.90
33715;DHT22;20043;50.998;4.754;2023-02-15T18:17:43;11.40;99.90
33715;DHT22;20043;50.998;4.754;2023-02-15T18:22:43;11.50;99.90
33715;DHT22;20043;50.998;4.754;2023-02-15T18:25:17;11.50;99.90
33715;DHT22;20043;50.998;4.754;2023-02-15T18:27:43;11.30;99.90
33715;DHT22;20043;50.998;4.754;2023-02-15T18:30:17;11.30;99.90
33715;DHT22;20043;50.998;4.754;2023-02-15T18:32:44;11.20;99.90
33715;DHT22;20043;50.998;4.754;2023-02-15T18:35:18;11.20;99.90
33715;DHT22;20043;50.998;4.754;2023-02-15T18:37:45;11.30;99.90
33715;DHT22;20043;50.998;4.754;2023-02-15T18:40:16;11.20;99.90
33715;DHT22;20043;50.998;4.754;2023-02-15T18:42:43;11.00;99.90
33715;DHT22;20043;50.998;4.754;2023-02-15T18:45:21;10.90;99.90
33715;DHT22;20043;50.998;4.754;2023-02-15T18:47:49;11.00;99.90
33715;DHT22;20043;50.998;4.754;2023-02-15T18:50:18;11.20;99.90
33715;DHT22;20043;50.998;4.754;2023-02-15T18:52:48;11.10;99.90
33715;DHT22;20043;50.998;4.754;2023-02-15T18:55:22;11.00;99.90
33715;DHT22;20043;50.998;4.754;2023-02-15T18:57:50;10.90;99.90
33715;DHT22;20043;50.998;4.754;2023-02-15T19:00:22;10.80;99.90
33715;DHT22;20043;50.998;4.754;2023-02-15T19:02:50;10.80;99.90
33715;DHT22;20043;50.998;4.754;2023-02-15T19:05:16;10.70;99.90
33715;DHT22;20043;50.998;4.754;2023-02-15T19:07:42;10.60;99.90
33715;DHT22;20043;50.998;4.754;2023-02-15T19:10:16;10.50;99.90
33715;DHT22;20043;50.998;4.754;2023-02-15T19:12:43;10.50;99.90
33715;DHT22;20043;50.998;4.754;2023-02-15T19:15:20;10.30;99.90
33715;DHT22;20043;50.998;4.754;2023-02-15T19:17:46;10.40;99.90
33715;DHT22;20043;50.998;4.754;2023-02-15T19:20:17;10.50;99.90
33715;DHT22;20043;50.998;4.754;2023-02-15T19:22:45;10.40;99.90
33715;DHT22;20043;50.998;4.754;2023-02-15T19:25:24;10.50;99.90
33715;DHT22;20043;50.998;4.754;2023-02-15T19:27:51;10.60;99.90
33715;DHT22;20043;50.998;4.754;2023-02-15T19:30:29;10.50;99.90
33715;DHT22;20043;50.998;4.754;2023-02-15T19:32:58;10.60;99.90